sensor_id;sensor_type;location;lat;lon;timestamp;pressure;altitude;pressure_sealevel;temperature;humidity
40490;BME280;26196;52.302;10.572;2022-10-17T00:02:50;101099.53;;;18.31;54.10
40490;BME280;26196;52.302;10.572;2022-10-17T00:06:50;101096.09;;;18.29;54.26
40490;BME280;26196;52.302;10.572;2022-10-17T00:10:58;101104.91;;;18.30;53.89
40490;BME280;26196;52.302;10.572;2022-10-17T00:14:59;101094.41;;;18.28;54.27
40490;BME280;26196;52.302;10.572;2022-10-17T00:18:59;101098.75;;;18.29;54.66
40490;BME280;26196;52.302;10.572;2022-10-17T00:23:00;101086.25;;;18.14;54.06
40490;BME280;26196;52.302;10.572;2022-10-17T00:27:00;101088.16;;;18.29;54.52
40490;BME280;26196;52.302;10.572;2022-10-17T00:31:04;101087.31;;;18.29;54.67
40490;BME280;26196;52.302;10.572;2022-10-17T00:35:05;101076.69;;;18.29;54.20
40490;BME280;26196;52.302;10.572;2022-10-17T00:39:06;101074.28;;;18.24;54.62
40490;BME280;26196;52.302;10.572;2022-10-17T00:43:25;101073.25;;;18.27;54.52
40490;BME280;26196;52.302;10.572;2022-10-17T00:47:26;101068.19;;;18.22;54.27
40490;BME280;26196;52.302;10.572;2022-10-17T00:51:40;101076.13;;;18.22;54.26
40490;BME280;26196;52.302;10.572;2022-10-17T00:55:47;101065.53;;;18.22;54.29
40490;BME280;26196;52.302;10.572;2022-10-17T00:59:52;101062.88;;;18.22;54.13
40490;BME280;26196;52.302;10.572;2022-10-17T01:03:53;101057.59;;;18.22;54.04
40490;BME280;26196;52.302;10.572;2022-10-17T01:07:54;101046.31;;;18.19;54.17
40490;BME280;26196;52.302;10.572;2022-10-17T01:11:58;101049.72;;;18.21;53.86
40490;BME280;26196;52.302;10.572;2022-10-17T01:16:18;101046.41;;;18.17;54.19
40490;BME280;26196;52.302;10.572;2022-10-17T01:24:49;101048.16;;;18.17;54.21
40490;BME280;26196;52.302;10.572;2022-10-17T01:46:02;101048.41;;;18.12;54.07
40490;BME280;26196;52.302;10.572;2022-10-17T01:50:10;101047.63;;;18.10;53.77
40490;BME280;26196;52.302;10.572;2022-10-17T01:54:26;101037.94;;;18.09;53.42
40490;BME280;26196;52.302;10.572;2022-10-17T01:58:38;101031.78;;;18.08;54.00
40490;BME280;26196;52.302;10.572;2022-10-17T02:02:41;101029.16;;;18.08;53.67
40490;BME280;26196;52.302;10.572;2022-10-17T02:06:43;101025.66;;;18.08;53.63
40490;BME280;26196;52.302;10.572;2022-10-17T02:11:02;101021.44;;;18.04;53.76
40490;BME280;26196;52.302;10.572;2022-10-17T02:19:29;101022.38;;;18.03;53.56
40490;BME280;26196;52.302;10.572;2022-10-17T02:23:54;101019.72;;;18.03;53.63
40490;BME280;26196;52.302;10.572;2022-10-17T02:32:14;101008.56;;;17.96;53.63
40490;BME280;26196;52.302;10.572;2022-10-17T02:36:34;101007.56;;;17.99;53.52
40490;BME280;26196;52.302;10.572;2022-10-17T02:40:38;101000.56;;;17.98;53.16
40490;BME280;26196;52.302;10.572;2022-10-17T02:44:42;101005.91;;;17.96;53.55
40490;BME280;26196;52.302;10.572;2022-10-17T02:48:47;101008.66;;;17.95;53.35
40490;BME280;26196;52.302;10.572;2022-10-17T02:52:54;101001.63;;;17.93;53.31
40490;BME280;26196;52.302;10.572;2022-10-17T03:01:22;100996.44;;;17.92;53.45
40490;BME280;26196;52.302;10.572;2022-10-17T03:05:25;100998.22;;;17.91;53.28
40490;BME280;26196;52.302;10.572;2022-10-17T03:09:26;100998.38;;;17.88;53.23
40490;BME280;26196;52.302;10.572;2022-10-17T03:13:28;100998.38;;;17.88;53.16
40490;BME280;26196;52.302;10.572;2022-10-17T03:17:28;101005.53;;;17.86;53.40
40490;BME280;26196;52.302;10.572;2022-10-17T03:21:29;101001.16;;;17.85;53.32
40490;BME280;26196;52.302;10.572;2022-10-17T03:25:29;101003.81;;;17.85;53.46
40490;BME280;26196;52.302;10.572;2022-10-17T03:29:30;101008.34;;;17.83;53.41
40490;BME280;26196;52.302;10.572;2022-10-17T03:33:30;101006.59;;;17.82;53.75
40490;BME280;26196;52.302;10.572;2022-10-17T03:37:30;101007.56;;;17.81;53.44
40490;BME280;26196;52.302;10.572;2022-10-17T03:41:31;100996.13;;;17.81;53.47
40490;BME280;26196;52.302;10.572;2022-10-17T03:45:31;100998.81;;;17.79;52.93
40490;BME280;26196;52.302;10.572;2022-10-17T03:49:32;101005.16;;;17.75;53.50
40490;BME280;26196;52.302;10.572;2022-10-17T03:53:33;101012.97;;;17.78;53.36
40490;BME280;26196;52.302;10.572;2022-10-17T03:57:34;101017.53;;;17.75;53.41
40490;BME280;26196;52.302;10.572;2022-10-17T04:01:36;101017.47;;;17.76;53.28
40490;BME280;26196;52.302;10.572;2022-10-17T04:05:36;101019.19;;;17.77;53.17
40490;BME280;26196;52.302;10.572;2022-10-17T04:09:37;101016.69;;;17.74;53.24
40490;BME280;26196;52.302;10.572;2022-10-17T04:13:37;101019.34;;;17.74;53.71
40490;BME280;26196;52.302;10.572;2022-10-17T04:17:37;101028.13;;;17.75;53.23
40490;BME280;26196;52.302;10.572;2022-10-17T04:21:38;101017.84;;;17.68;53.10
40490;BME280;26196;52.302;10.572;2022-10-17T04:25:38;101016.84;;;17.71;53.31
40490;BME280;26196;52.302;10.572;2022-10-17T04:29:39;101007.16;;;17.70;53.21
40490;BME280;26196;52.302;10.572;2022-10-17T04:33:40;101009.97;;;17.67;53.32
40490;BME280;26196;52.302;10.572;2022-10-17T04:37:41;101024.00;;;17.69;53.23
40490;BME280;26196;52.302;10.572;2022-10-17T04:41:42;101024.00;;;17.69;53.38
40490;BME280;26196;52.302;10.572;2022-10-17T04:45:42;101031.16;;;17.67;53.34
40490;BME280;26196;52.302;10.572;2022-10-17T04:49:43;101031.16;;;17.67;53.27
40490;BME280;26196;52.302;10.572;2022-10-17T04:53:44;101024.16;;;17.66;54.02
40490;BME280;26196;52.302;10.572;2022-10-17T04:57:44;101026.81;;;17.66;53.64
40490;BME280;26196;52.302;10.572;2022-10-17T05:01:45;101024.31;;;17.63;53.85
40490;BME280;26196;52.302;10.572;2022-10-17T05:05:47;101022.56;;;17.62;53.41
40490;BME280;26196;52.302;10.572;2022-10-17T05:09:48;101026.97;;;17.63;53.89
40490;BME280;26196;52.302;10.572;2022-10-17T05:13:50;101026.81;;;17.66;54.41
40490;BME280;26196;52.302;10.572;2022-10-17T05:17:54;101025.94;;;17.65;54.12
40490;BME280;26196;52.302;10.572;2022-10-17T05:21:55;101017.44;;;17.59;53.88
40490;BME280;26196;52.302;10.572;2022-10-17T05:25:55;101022.50;;;17.63;53.86
40490;BME280;26196;52.302;10.572;2022-10-17T05:29:56;101011.28;;;17.58;53.74
40490;BME280;26196;52.302;10.572;2022-10-17T05:34:01;101026.97;;;17.63;53.75
40490;BME280;26196;52.302;10.572;2022-10-17T05:38:01;101036.59;;;17.64;54.00
40490;BME280;26196;52.302;10.572;2022-10-17T05:42:02;101033.16;;;17.62;53.98
40490;BME280;26196;52.302;10.572;2022-10-17T05:46:05;101038.47;;;17.62;53.46
40490;BME280;26196;52.302;10.572;2022-10-17T05:50:07;101037.53;;;17.63;53.68
40490;BME280;26196;52.302;10.572;2022-10-17T05:54:08;101038.41;;;17.63;55.69
40490;BME280;26196;52.302;10.572;2022-10-17T05:58:08;101037.69;;;17.60;54.38
40490;BME280;26196;52.302;10.572;2022-10-17T06:02:11;101039.56;;;17.58;54.13
40490;BME280;26196;52.302;10.572;2022-10-17T06:06:13;101050.94;;;17.60;54.24
40490;BME280;26196;52.302;10.572;2022-10-17T06:10:14;101054.59;;;17.57;54.02
40490;BME280;26196;52.302;10.572;2022-10-17T06:14:15;101050.34;;;17.53;54.06
40490;BME280;26196;52.302;10.572;2022-10-17T06:18:16;101050.34;;;17.53;53.90
40490;BME280;26196;52.302;10.572;2022-10-17T06:22:16;101055.59;;;17.55;54.20
40490;BME280;26196;52.302;10.572;2022-10-17T06:26:17;101064.44;;;17.54;53.69
40490;BME280;26196;52.302;10.572;2022-10-17T06:30:17;101055.66;;;17.53;54.04
40490;BME280;26196;52.302;10.572;2022-10-17T06:34:18;101058.94;;;17.58;55.60
40490;BME280;26196;52.302;10.572;2022-10-17T06:38:19;101060.78;;;17.56;54.63
40490;BME280;26196;52.302;10.572;2022-10-17T06:42:19;101071.47;;;17.55;54.54
40490;BME280;26196;52.302;10.572;2022-10-17T06:46:19;101075.19;;;17.50;54.33
40490;BME280;26196;52.302;10.572;2022-10-17T06:50:20;101084.91;;;17.50;54.29
40490;BME280;26196;52.302;10.572;2022-10-17T06:54:20;101078.53;;;17.54;54.17
40490;BME280;26196;52.302;10.572;2022-10-17T06:58:21;101080.41;;;17.52;54.56
40490;BME280;26196;52.302;10.572;2022-10-17T07:02:22;101088.34;;;17.52;54.50
40490;BME280;26196;52.302;10.572;2022-10-17T07:06:23;101084.81;;;17.52;54.79
40490;BME280;26196;52.302;10.572;2022-10-17T07:10:25;101090.13;;;17.52;54.54
40490;BME280;26196;52.302;10.572;2022-10-17T07:14:25;101097.16;;;17.53;54.48
40490;BME280;26196;52.302;10.572;2022-10-17T07:18:31;101092.84;;;17.50;54.65
40490;BME280;26196;52.302;10.572;2022-10-17T07:22:31;101094.50;;;17.53;56.41
40490;BME280;26196;52.302;10.572;2022-10-17T07:26:32;101090.91;;;17.54;56.72
40490;BME280;26196;52.302;10.572;2022-10-17T07:30:33;101106.59;;;17.58;56.80
40490;BME280;26196;52.302;10.572;2022-10-17T07:34:34;101100.34;;;17.59;56.31
40490;BME280;26196;52.302;10.572;2022-10-17T07:38:35;101093.28;;;17.60;57.68
40490;BME280;26196;52.302;10.572;2022-10-17T07:42:37;101104.72;;;17.60;58.42
40490;BME280;26196;52.302;10.572;2022-10-17T07:46:38;101109.16;;;17.60;57.05
40490;BME280;26196;52.302;10.572;2022-10-17T07:50:39;101118.88;;;17.59;56.50
40490;BME280;26196;52.302;10.572;2022-10-17T07:54:39;101118.88;;;17.59;57.02
40490;BME280;26196;52.302;10.572;2022-10-17T07:58:40;101109.22;;;17.58;57.64
40490;BME280;26196;52.302;10.572;2022-10-17T08:02:41;101112.66;;;17.60;57.82
40490;BME280;26196;52.302;10.572;2022-10-17T08:06:41;101104.72;;;17.60;57.65
40490;BME280;26196;52.302;10.572;2022-10-17T08:10:42;101128.25;;;17.66;58.28
40490;BME280;26196;52.302;10.572;2022-10-17T08:14:43;101122.16;;;17.64;57.99
40490;BME280;26196;52.302;10.572;2022-10-17T08:18:43;101120.31;;;17.66;58.14
40490;BME280;26196;52.302;10.572;2022-10-17T08:22:50;101122.00;;;17.67;57.94
40490;BME280;26196;52.302;10.572;2022-10-17T08:26:51;101120.25;;;17.68;57.61
40490;BME280;26196;52.302;10.572;2022-10-17T08:30:52;101117.50;;;17.69;57.86
40490;BME280;26196;52.302;10.572;2022-10-17T08:34:53;101114.97;;;17.68;58.23
40490;BME280;26196;52.302;10.572;2022-10-17T08:38:54;101120.09;;;17.71;58.51
40490;BME280;26196;52.302;10.572;2022-10-17T08:47:01;101124.47;;;17.72;57.90
40490;BME280;26196;52.302;10.572;2022-10-17T08:51:14;101114.66;;;17.74;58.36
40490;BME280;26196;52.302;10.572;2022-10-17T08:55:39;101105.00;;;17.73;57.24
40490;BME280;26196;52.302;10.572;2022-10-17T08:59:37;101111.16;;;17.74;58.41
40490;BME280;26196;52.302;10.572;2022-10-17T09:12:25;101101.41;;;17.74;58.32
40490;BME280;26196;52.302;10.572;2022-10-17T09:20:43;101086.38;;;17.75;57.82
40490;BME280;26196;52.302;10.572;2022-10-17T09:24:48;101092.34;;;17.80;57.42
40490;BME280;26196;52.302;10.572;2022-10-17T09:28:53;101090.44;;;17.83;57.54
40490;BME280;26196;52.302;10.572;2022-10-17T09:32:55;101097.44;;;17.84;58.17
40490;BME280;26196;52.302;10.572;2022-10-17T09:36:57;101091.28;;;17.84;58.21
40490;BME280;26196;52.302;10.572;2022-10-17T09:41:00;101095.56;;;17.86;57.75
40490;BME280;26196;52.302;10.572;2022-10-17T09:45:15;101091.97;;;17.87;58.18
40490;BME280;26196;52.302;10.572;2022-10-17T09:49:22;101092.78;;;17.89;57.93
40490;BME280;26196;52.302;10.572;2022-10-17T09:53:47;101100.56;;;17.92;59.40
40490;BME280;26196;52.302;10.572;2022-10-17T09:57:57;101102.28;;;17.93;59.37
40490;BME280;26196;52.302;10.572;2022-10-17T10:06:19;101103.84;;;17.98;59.34
40490;BME280;26196;52.302;10.572;2022-10-17T10:10:25;101108.19;;;17.99;59.85
40490;BME280;26196;52.302;10.572;2022-10-17T10:18:35;101115.03;;;18.04;60.35
40490;BME280;26196;52.302;10.572;2022-10-17T10:22:35;101112.28;;;18.06;59.48
40490;BME280;26196;52.302;10.572;2022-10-17T10:26:42;101110.56;;;18.05;59.21
40490;BME280;26196;52.302;10.572;2022-10-17T10:30:49;101115.56;;;18.11;61.73
40490;BME280;26196;52.302;10.572;2022-10-17T10:39:25;101113.53;;;18.16;60.44
40490;BME280;26196;52.302;10.572;2022-10-17T10:47:33;101119.56;;;18.20;60.37
40490;BME280;26196;52.302;10.572;2022-10-17T10:51:44;101116.03;;;18.19;62.95
40490;BME280;26196;52.302;10.572;2022-10-17T10:56:06;101117.63;;;18.23;61.54
40490;BME280;26196;52.302;10.572;2022-10-17T11:00:14;101127.22;;;18.26;62.87
40490;BME280;26196;52.302;10.572;2022-10-17T11:08:47;101110.19;;;18.30;60.20
40490;BME280;26196;52.302;10.572;2022-10-17T11:17:16;101126.72;;;18.35;60.08
40490;BME280;26196;52.302;10.572;2022-10-17T11:21:40;101132.81;;;18.37;60.03
40490;BME280;26196;52.302;10.572;2022-10-17T11:25:43;101126.50;;;18.40;60.26
40490;BME280;26196;52.302;10.572;2022-10-17T11:29:43;101129.94;;;18.42;61.31
40490;BME280;26196;52.302;10.572;2022-10-17T11:33:49;101131.66;;;18.43;61.57
40490;BME280;26196;52.302;10.572;2022-10-17T11:42:50;101151.00;;;18.45;60.50
40490;BME280;26196;52.302;10.572;2022-10-17T11:46:56;101150.09;;;18.46;60.14
40490;BME280;26196;52.302;10.572;2022-10-17T11:51:08;101138.53;;;18.47;60.05
40490;BME280;26196;52.302;10.572;2022-10-17T11:55:18;101141.09;;;18.48;59.70
40490;BME280;26196;52.302;10.572;2022-10-17T12:00:16;101136.50;;;18.52;60.02
40490;BME280;26196;52.302;10.572;2022-10-17T12:08:27;101128.41;;;18.55;60.25
40490;BME280;26196;52.302;10.572;2022-10-17T12:12:32;101132.63;;;18.59;60.83
40490;BME280;26196;52.302;10.572;2022-10-17T12:20:37;101121.06;;;18.60;61.80
40490;BME280;26196;52.302;10.572;2022-10-17T12:24:43;101108.59;;;18.62;62.21
40490;BME280;26196;52.302;10.572;2022-10-17T12:28:45;101108.38;;;18.67;62.26
40490;BME280;26196;52.302;10.572;2022-10-17T12:32:53;101126.66;;;18.71;61.48
40490;BME280;26196;52.302;10.572;2022-10-17T12:36:54;101130.06;;;18.75;61.88
40490;BME280;26196;52.302;10.572;2022-10-17T12:40:56;101131.84;;;18.74;60.88
40490;BME280;26196;52.302;10.572;2022-10-17T12:44:56;101137.75;;;18.79;61.71
40490;BME280;26196;52.302;10.572;2022-10-17T12:49:03;101134.97;;;18.83;61.18
40490;BME280;26196;52.302;10.572;2022-10-17T12:53:05;101126.06;;;18.84;61.17
40490;BME280;26196;52.302;10.572;2022-10-17T13:01:30;101121.56;;;18.86;60.31
40490;BME280;26196;52.302;10.572;2022-10-17T13:05:33;101114.44;;;18.86;60.29
40490;BME280;26196;52.302;10.572;2022-10-17T13:09:37;101106.44;;;18.88;60.43
40490;BME280;26196;52.302;10.572;2022-10-17T13:17:42;101120.59;;;18.87;60.43
40490;BME280;26196;52.302;10.572;2022-10-17T13:26:11;101127.31;;;18.94;60.52
40490;BME280;26196;52.302;10.572;2022-10-17T13:30:27;101130.03;;;18.92;59.99
40490;BME280;26196;52.302;10.572;2022-10-17T13:34:30;101131.66;;;18.95;60.22
40490;BME280;26196;52.302;10.572;2022-10-17T13:38:32;101134.19;;;18.98;60.06
40490;BME280;26196;52.302;10.572;2022-10-17T13:42:38;101129.75;;;18.98;60.70
40490;BME280;26196;52.302;10.572;2022-10-17T13:46:39;101138.63;;;18.97;60.24
40490;BME280;26196;52.302;10.572;2022-10-17T13:50:41;101156.00;;;19.03;60.24
40490;BME280;26196;52.302;10.572;2022-10-17T13:54:44;101158.66;;;19.03;60.10
40490;BME280;26196;52.302;10.572;2022-10-17T13:58:47;101160.38;;;19.04;60.11
40490;BME280;26196;52.302;10.572;2022-10-17T14:02:47;101165.69;;;19.04;59.70
40490;BME280;26196;52.302;10.572;2022-10-17T14:06:48;101175.28;;;19.07;60.31
40490;BME280;26196;52.302;10.572;2022-10-17T14:10:48;101180.59;;;19.07;60.20
40490;BME280;26196;52.302;10.572;2022-10-17T14:14:51;101175.13;;;19.10;60.46
40490;BME280;26196;52.302;10.572;2022-10-17T14:18:53;101177.78;;;19.10;60.69
40490;BME280;26196;52.302;10.572;2022-10-17T14:22:58;101161.00;;;19.09;60.53
40490;BME280;26196;52.302;10.572;2022-10-17T14:26:59;101159.13;;;19.11;60.32
40490;BME280;26196;52.302;10.572;2022-10-17T14:31:22;101168.81;;;19.12;60.12
40490;BME280;26196;52.302;10.572;2022-10-17T14:35:24;101184.56;;;19.15;60.25
40490;BME280;26196;52.302;10.572;2022-10-17T14:39:26;101186.28;;;19.16;60.15
40490;BME280;26196;52.302;10.572;2022-10-17T14:43:28;101189.00;;;19.15;60.05
40490;BME280;26196;52.302;10.572;2022-10-17T14:47:29;101185.41;;;19.16;60.39
40490;BME280;26196;52.302;10.572;2022-10-17T14:51:30;101186.28;;;19.16;60.05
40490;BME280;26196;52.302;10.572;2022-10-17T14:55:34;101192.28;;;19.20;60.08
40490;BME280;26196;52.302;10.572;2022-10-17T14:59:35;101196.56;;;19.22;59.91
40490;BME280;26196;52.302;10.572;2022-10-17T15:03:35;101197.44;;;19.23;60.14
40490;BME280;26196;52.302;10.572;2022-10-17T15:07:36;101207.97;;;19.24;60.28
40490;BME280;26196;52.302;10.572;2022-10-17T15:11:36;101202.66;;;19.24;60.17
40490;BME280;26196;52.302;10.572;2022-10-17T15:15:38;101207.88;;;19.26;61.07
40490;BME280;26196;52.302;10.572;2022-10-17T15:19:39;101206.84;;;19.29;60.62
40490;BME280;26196;52.302;10.572;2022-10-17T15:23:40;101214.91;;;19.27;60.33
40490;BME280;26196;52.302;10.572;2022-10-17T15:27:41;101220.91;;;19.31;60.58
40490;BME280;26196;52.302;10.572;2022-10-17T15:31:42;101228.88;;;19.31;60.72
40490;BME280;26196;52.302;10.572;2022-10-17T15:35:43;101227.94;;;19.32;60.48
40490;BME280;26196;52.302;10.572;2022-10-17T15:39:43;101230.44;;;19.35;60.72
40490;BME280;26196;52.302;10.572;2022-10-17T15:43:47;101230.44;;;19.35;60.45
40490;BME280;26196;52.302;10.572;2022-10-17T15:47:53;101241.91;;;19.35;60.72
40490;BME280;26196;52.302;10.572;2022-10-17T15:51:55;101239.34;;;19.34;60.90
40490;BME280;26196;52.302;10.572;2022-10-17T15:55:57;101252.53;;;19.35;60.59
40490;BME280;26196;52.302;10.572;2022-10-17T15:59:58;101253.47;;;19.34;61.02
40490;BME280;26196;52.302;10.572;2022-10-17T16:04:00;101240.59;;;19.27;61.06
40490;BME280;26196;52.302;10.572;2022-10-17T16:08:00;101265.56;;;19.40;60.95
40490;BME280;26196;52.302;10.572;2022-10-17T16:12:01;101272.66;;;19.39;60.87
40490;BME280;26196;52.302;10.572;2022-10-17T16:16:01;101262.13;;;19.38;60.72
40490;BME280;26196;52.302;10.572;2022-10-17T16:20:02;101275.25;;;19.41;60.94
40490;BME280;26196;52.302;10.572;2022-10-17T16:24:03;101285.81;;;19.42;60.98
40490;BME280;26196;52.302;10.572;2022-10-17T16:28:04;101279.59;;;19.42;60.77
40490;BME280;26196;52.302;10.572;2022-10-17T16:32:08;101288.34;;;19.44;60.95
40490;BME280;26196;52.302;10.572;2022-10-17T16:36:09;101297.28;;;19.43;60.76
40490;BME280;26196;52.302;10.572;2022-10-17T16:40:10;101304.38;;;19.42;61.05
40490;BME280;26196;52.302;10.572;2022-10-17T16:44:11;101302.41;;;19.46;60.99
40490;BME280;26196;52.302;10.572;2022-10-17T16:48:15;101305.94;;;19.46;60.81
40490;BME280;26196;52.302;10.572;2022-10-17T16:52:16;101316.47;;;19.48;60.92
40490;BME280;26196;52.302;10.572;2022-10-17T16:56:22;101314.84;;;19.45;60.68
40490;BME280;26196;52.302;10.572;2022-10-17T17:00:22;101326.94;;;19.51;62.85
40490;BME280;26196;52.302;10.572;2022-10-17T17:04:23;101336.59;;;19.52;63.41
40490;BME280;26196;52.302;10.572;2022-10-17T17:08:23;101333.19;;;19.50;61.73
40490;BME280;26196;52.302;10.572;2022-10-17T17:12:24;101338.50;;;19.50;62.13
40490;BME280;26196;52.302;10.572;2022-10-17T17:16:26;101344.50;;;19.54;61.70
40490;BME280;26196;52.302;10.572;2022-10-17T17:20:26;101344.44;;;19.55;61.96
40490;BME280;26196;52.302;10.572;2022-10-17T17:24:27;101343.56;;;19.55;62.02
40490;BME280;26196;52.302;10.572;2022-10-17T17:28:29;101348.81;;;19.56;61.49
40490;BME280;26196;52.302;10.572;2022-10-17T17:32:31;101352.41;;;19.55;62.38
40490;BME280;26196;52.302;10.572;2022-10-17T17:36:36;101358.47;;;19.57;62.79
40490;BME280;26196;52.302;10.572;2022-10-17T17:40:43;101360.22;;;19.58;63.79
40490;BME280;26196;52.302;10.572;2022-10-17T17:44:43;101364.50;;;19.61;64.46
40490;BME280;26196;52.302;10.572;2022-10-17T17:48:45;101370.72;;;19.60;64.94
40490;BME280;26196;52.302;10.572;2022-10-17T17:52:46;101379.56;;;19.60;63.71
40490;BME280;26196;52.302;10.572;2022-10-17T17:56:49;101382.22;;;19.60;64.45
40490;BME280;26196;52.302;10.572;2022-10-17T18:00:50;101390.13;;;19.62;63.90
40490;BME280;26196;52.302;10.572;2022-10-17T18:04:50;101401.69;;;19.61;64.22
40490;BME280;26196;52.302;10.572;2022-10-17T18:08:54;101389.16;;;19.63;63.67
40490;BME280;26196;52.302;10.572;2022-10-17T18:12:55;101389.16;;;19.63;63.52
40490;BME280;26196;52.302;10.572;2022-10-17T18:16:55;101390.06;;;19.63;63.89
40490;BME280;26196;52.302;10.572;2022-10-17T18:20:59;101386.59;;;19.61;64.29
40490;BME280;26196;52.302;10.572;2022-10-17T18:25:00;101402.44;;;19.63;64.07
40490;BME280;26196;52.302;10.572;2022-10-17T18:29:01;101395.50;;;19.60;64.20
40490;BME280;26196;52.302;10.572;2022-10-17T18:33:02;101401.59;;;19.62;63.23
40490;BME280;26196;52.302;10.572;2022-10-17T18:37:03;101418.25;;;19.66;63.74
40490;BME280;26196;52.302;10.572;2022-10-17T18:41:06;101420.03;;;19.65;63.58
40490;BME280;26196;52.302;10.572;2022-10-17T18:45:07;101433.28;;;19.67;63.90
40490;BME280;26196;52.302;10.572;2022-10-17T18:49:09;101428.88;;;19.66;63.67
40490;BME280;26196;52.302;10.572;2022-10-17T18:53:10;101427.91;;;19.69;63.48
40490;BME280;26196;52.302;10.572;2022-10-17T18:57:10;101440.28;;;19.68;63.92
40490;BME280;26196;52.302;10.572;2022-10-17T19:01:17;101443.84;;;19.69;63.46
40490;BME280;26196;52.302;10.572;2022-10-17T19:05:18;101444.69;;;19.69;63.96
40490;BME280;26196;52.302;10.572;2022-10-17T19:09:18;101455.22;;;19.71;63.83
40490;BME280;26196;52.302;10.572;2022-10-17T19:13:19;101449.13;;;19.69;63.90
40490;BME280;26196;52.302;10.572;2022-10-17T19:17:19;101442.88;;;19.70;64.57
40490;BME280;26196;52.302;10.572;2022-10-17T19:21:20;101431.59;;;19.64;64.64
40490;BME280;26196;52.302;10.572;2022-10-17T19:25:20;101438.41;;;19.70;64.00
40490;BME280;26196;52.302;10.572;2022-10-17T19:29:23;101443.66;;;19.72;64.46
40490;BME280;26196;52.302;10.572;2022-10-17T19:33:24;101438.53;;;19.69;63.77
40490;BME280;26196;52.302;10.572;2022-10-17T19:37:25;101440.22;;;19.70;64.13
40490;BME280;26196;52.302;10.572;2022-10-17T19:41:26;101447.25;;;19.71;64.44
40490;BME280;26196;52.302;10.572;2022-10-17T19:45:27;101443.84;;;19.69;64.58
40490;BME280;26196;52.302;10.572;2022-10-17T19:49:27;101449.91;;;19.71;64.64
40490;BME280;26196;52.302;10.572;2022-10-17T19:53:28;101442.16;;;19.66;64.52
40490;BME280;26196;52.302;10.572;2022-10-17T19:57:28;101448.38;;;19.65;64.50
40490;BME280;26196;52.302;10.572;2022-10-17T20:01:32;101445.53;;;19.70;63.61
40490;BME280;26196;52.302;10.572;2022-10-17T20:05:36;101446.53;;;19.67;64.13
40490;BME280;26196;52.302;10.572;2022-10-17T20:09:37;101445.53;;;19.70;64.70
40490;BME280;26196;52.302;10.572;2022-10-17T20:13:37;101449.13;;;19.69;63.85
40490;BME280;26196;52.302;10.572;2022-10-17T20:17:38;101472.09;;;19.70;64.36
40490;BME280;26196;52.302;10.572;2022-10-17T20:21:38;101482.06;;;19.64;64.83
40490;BME280;26196;52.302;10.572;2022-10-17T20:25:39;101489.06;;;19.65;64.41
40490;BME280;26196;52.302;10.572;2022-10-17T20:29:40;101494.34;;;19.67;63.74
40490;BME280;26196;52.302;10.572;2022-10-17T20:33:40;101511.16;;;19.67;64.01
40490;BME280;26196;52.302;10.572;2022-10-17T20:37:41;101510.28;;;19.67;64.32
40490;BME280;26196;52.302;10.572;2022-10-17T20:41:42;101512.13;;;19.65;63.86
40490;BME280;26196;52.302;10.572;2022-10-17T20:45:43;101526.25;;;19.65;64.53
40490;BME280;26196;52.302;10.572;2022-10-17T20:49:43;101530.72;;;19.65;63.96
40490;BME280;26196;52.302;10.572;2022-10-17T20:53:44;101538.69;;;19.65;63.95
40490;BME280;26196;52.302;10.572;2022-10-17T20:57:44;101542.28;;;19.64;64.13
40490;BME280;26196;52.302;10.572;2022-10-17T21:01:45;101542.34;;;19.62;64.17
40490;BME280;26196;52.302;10.572;2022-10-17T21:05:46;101557.38;;;19.63;64.04
40490;BME280;26196;52.302;10.572;2022-10-17T21:09:46;101569.69;;;19.64;63.15
40490;BME280;26196;52.302;10.572;2022-10-17T21:13:53;101560.94;;;19.62;63.50
40490;BME280;26196;52.302;10.572;2022-10-17T21:17:54;101566.25;;;19.62;64.17
40490;BME280;26196;52.302;10.572;2022-10-17T21:21:54;101562.69;;;19.63;63.65
40490;BME280;26196;52.302;10.572;2022-10-17T21:25:58;101560.94;;;19.62;63.47
40490;BME280;26196;52.302;10.572;2022-10-17T21:29:58;101559.09;;;19.64;64.04
40490;BME280;26196;52.302;10.572;2022-10-17T21:34:04;101555.63;;;19.62;64.07
40490;BME280;26196;52.302;10.572;2022-10-17T21:38:05;101561.78;;;19.63;64.09
40490;BME280;26196;52.302;10.572;2022-10-17T21:42:05;101568.84;;;19.64;62.61
40490;BME280;26196;52.302;10.572;2022-10-17T21:46:08;101562.69;;;19.63;63.05
40490;BME280;26196;52.302;10.572;2022-10-17T21:50:09;101567.06;;;19.64;63.81
40490;BME280;26196;52.302;10.572;2022-10-17T21:54:10;101566.25;;;19.62;63.71
40490;BME280;26196;52.302;10.572;2022-10-17T21:58:11;101576.03;;;19.62;63.92
40490;BME280;26196;52.302;10.572;2022-10-17T22:02:11;101575.16;;;19.61;63.35
40490;BME280;26196;52.302;10.572;2022-10-17T22:06:15;101573.44;;;19.60;64.00
40490;BME280;26196;52.302;10.572;2022-10-17T22:10:16;101582.19;;;19.62;63.84
40490;BME280;26196;52.302;10.572;2022-10-17T22:14:19;101585.78;;;19.61;63.65
40490;BME280;26196;52.302;10.572;2022-10-17T22:18:20;101592.03;;;19.60;63.27
40490;BME280;26196;52.302;10.572;2022-10-17T22:22:20;101607.91;;;19.62;63.33
40490;BME280;26196;52.302;10.572;2022-10-17T22:26:21;101591.16;;;19.60;63.03
40490;BME280;26196;52.302;10.572;2022-10-17T22:30:21;101590.25;;;19.61;63.15
40490;BME280;26196;52.302;10.572;2022-10-17T22:34:22;101592.03;;;19.60;63.52
40490;BME280;26196;52.302;10.572;2022-10-17T22:38:22;101592.91;;;19.61;62.81